NPV7805 LIMC-LIPX
Flight info
| Callsign | NPV7805 |
|---|---|
| Flight time | 0h 25m |
| Altitude | 17000 |
| Route | ROBAS DCT ERMOB |
| Aircraft | A321/M-SDE3FGHIRWY/LB1 |
Departure
| Time | 2026-05-07 19:57 |
|---|---|
| Airport | Milan Malpensa International Airport (LIMC) |
Arrival
| Time | 2026-05-07 20:23 |
|---|---|
| Airport | Verona Villafranca Valerio Catullo Airport (LIPX) |
| Time | Latitude | Longitude | Altitude | Speed | Heading |
|---|---|---|---|---|---|
| 2026-05-07 19:37 | 45.61500 | 8.72245 | 708 ft | 0 kts | 79° |
| 2026-05-07 19:48 | 45.61504 | 8.72277 | 697 ft | 8 kts | 80° |
| 2026-05-07 19:48 | 45.61494 | 8.72339 | 700 ft | 7 kts | 139° |
| 2026-05-07 19:48 | 45.61415 | 8.72355 | 706 ft | 15 kts | 207° |
| 2026-05-07 19:48 | 45.61384 | 8.72285 | 701 ft | 0 kts | 239° |
| 2026-05-07 19:49 | 45.61384 | 8.72284 | 701 ft | 0 kts | 242° |
| 2026-05-07 19:49 | 45.61381 | 8.72252 | 703 ft | 7 kts | 259° |
| 2026-05-07 19:49 | 45.61321 | 8.72201 | 700 ft | 16 kts | 177° |
| 2026-05-07 19:49 | 45.61197 | 8.72233 | 699 ft | 19 kts | 169° |
| 2026-05-07 19:50 | 45.61056 | 8.72272 | 696 ft | 22 kts | 169° |
| 2026-05-07 19:50 | 45.60906 | 8.72313 | 697 ft | 22 kts | 169° |
| 2026-05-07 19:50 | 45.60761 | 8.72354 | 697 ft | 21 kts | 169° |
| 2026-05-07 19:50 | 45.60656 | 8.72429 | 695 ft | 15 kts | 122° |
| 2026-05-07 19:51 | 45.60634 | 8.72577 | 698 ft | 17 kts | 96° |
| 2026-05-07 19:51 | 45.60619 | 8.72775 | 698 ft | 21 kts | 96° |
| 2026-05-07 19:51 | 45.60605 | 8.72975 | 695 ft | 20 kts | 96° |
| 2026-05-07 19:51 | 45.60593 | 8.73163 | 696 ft | 18 kts | 88° |
| 2026-05-07 19:52 | 45.60665 | 8.73290 | 694 ft | 17 kts | 25° |
| 2026-05-07 19:52 | 45.60781 | 8.73359 | 698 ft | 21 kts | 22° |
| 2026-05-07 19:52 | 45.60922 | 8.73401 | 695 ft | 21 kts | 352° |
| 2026-05-07 19:52 | 45.61060 | 8.73364 | 693 ft | 21 kts | 349° |
| 2026-05-07 19:53 | 45.61223 | 8.73320 | 698 ft | 24 kts | 349° |
| 2026-05-07 19:53 | 45.61382 | 8.73275 | 698 ft | 22 kts | 349° |
| 2026-05-07 19:53 | 45.61528 | 8.73236 | 699 ft | 20 kts | 349° |
| 2026-05-07 19:53 | 45.61613 | 8.73259 | 698 ft | 11 kts | 58° |
| 2026-05-07 19:54 | 45.61631 | 8.73364 | 705 ft | 10 kts | 80° |
| 2026-05-07 19:54 | 45.61625 | 8.73447 | 699 ft | 8 kts | 111° |
| 2026-05-07 19:54 | 45.61599 | 8.73519 | 697 ft | 8 kts | 114° |
| 2026-05-07 19:54 | 45.61588 | 8.73588 | 698 ft | 4 kts | 93° |
| 2026-05-07 19:55 | 45.61588 | 8.73594 | 702 ft | 0 kts | 91° |
| 2026-05-07 19:56 | 45.61587 | 8.73621 | 702 ft | 8 kts | 89° |
| 2026-05-07 19:56 | 45.61601 | 8.73721 | 701 ft | 8 kts | 78° |
| 2026-05-07 19:56 | 45.61617 | 8.73737 | 698 ft | 4 kts | 4° |
| 2026-05-07 19:56 | 45.61736 | 8.73707 | 701 ft | 44 kts | 349° |
| 2026-05-07 19:57 | 45.62267 | 8.73559 | 717 ft | 108 kts | 349° |
| 2026-05-07 19:57 | 45.63172 | 8.73309 | 732 ft | 155 kts | 349° |
| 2026-05-07 19:57 | 45.64314 | 8.73005 | 1086 ft | 166 kts | 353° |
| 2026-05-07 19:57 | 45.65438 | 8.73183 | 1682 ft | 168 kts | 31° |
| 2026-05-07 19:58 | 45.66210 | 8.74407 | 2232 ft | 169 kts | 68° |
| 2026-05-07 19:58 | 45.66535 | 8.76041 | 2639 ft | 177 kts | 70° |
| 2026-05-07 19:58 | 45.67371 | 8.77458 | 2779 ft | 200 kts | 39° |
| 2026-05-07 19:58 | 45.68474 | 8.78693 | 3157 ft | 207 kts | 38° |
| 2026-05-07 19:59 | 45.69645 | 8.79997 | 3586 ft | 212 kts | 38° |
| 2026-05-07 19:59 | 45.70809 | 8.81316 | 4071 ft | 215 kts | 39° |
| 2026-05-07 19:59 | 45.71952 | 8.82659 | 4549 ft | 217 kts | 44° |
| 2026-05-07 19:59 | 45.72671 | 8.84525 | 4997 ft | 218 kts | 81° |
| 2026-05-07 20:00 | 45.72451 | 8.86642 | 5454 ft | 218 kts | 118° |
| 2026-05-07 20:00 | 45.71588 | 8.88459 | 5829 ft | 226 kts | 126° |
| 2026-05-07 20:00 | 45.70630 | 8.90337 | 6104 ft | 241 kts | 127° |
| 2026-05-07 20:00 | 45.69634 | 8.92279 | 6762 ft | 243 kts | 127° |
| 2026-05-07 20:01 | 45.68630 | 8.94238 | 7453 ft | 246 kts | 126° |
| 2026-05-07 20:01 | 45.67611 | 8.96225 | 8135 ft | 249 kts | 126° |
| 2026-05-07 20:01 | 45.66581 | 8.98238 | 8824 ft | 252 kts | 126° |
| 2026-05-07 20:01 | 45.65547 | 9.00268 | 9519 ft | 254 kts | 126° |
| 2026-05-07 20:02 | 45.64492 | 9.02310 | 10166 ft | 258 kts | 130° |
| 2026-05-07 20:02 | 45.63249 | 9.04315 | 10392 ft | 280 kts | 132° |
| 2026-05-07 20:02 | 45.61894 | 9.06451 | 10673 ft | 298 kts | 133° |
| 2026-05-07 20:02 | 45.60454 | 9.08703 | 10984 ft | 315 kts | 133° |
| 2026-05-07 20:03 | 45.58949 | 9.11060 | 11347 ft | 329 kts | 133° |
| 2026-05-07 20:03 | 45.57370 | 9.13535 | 11722 ft | 343 kts | 133° |
| 2026-05-07 20:03 | 45.55731 | 9.16100 | 12141 ft | 355 kts | 133° |
| 2026-05-07 20:03 | 45.54046 | 9.18737 | 12633 ft | 363 kts | 133° |
| 2026-05-07 20:04 | 45.52333 | 9.21422 | 13227 ft | 368 kts | 133° |
| 2026-05-07 20:04 | 45.50594 | 9.24149 | 13843 ft | 373 kts | 134° |
| 2026-05-07 20:04 | 45.48840 | 9.26894 | 14412 ft | 377 kts | 134° |
| 2026-05-07 20:04 | 45.47062 | 9.29676 | 14990 ft | 381 kts | 134° |
| 2026-05-07 20:05 | 45.45272 | 9.32470 | 15563 ft | 384 kts | 134° |
| 2026-05-07 20:05 | 45.43466 | 9.35285 | 16139 ft | 387 kts | 134° |
| 2026-05-07 20:05 | 45.41638 | 9.38129 | 16704 ft | 390 kts | 134° |
| 2026-05-07 20:05 | 45.39794 | 9.40996 | 16944 ft | 393 kts | 134° |
| 2026-05-07 20:06 | 45.37941 | 9.43878 | 16998 ft | 399 kts | 134° |
| 2026-05-07 20:06 | 45.36058 | 9.46803 | 16996 ft | 401 kts | 134° |
| 2026-05-07 20:06 | 45.34193 | 9.49697 | 16994 ft | 402 kts | 134° |
| 2026-05-07 20:06 | 45.32282 | 9.52663 | 16986 ft | 402 kts | 134° |
| 2026-05-07 20:07 | 45.30392 | 9.55592 | 16984 ft | 402 kts | 134° |
| 2026-05-07 20:07 | 45.28500 | 9.58516 | 16979 ft | 402 kts | 134° |
| 2026-05-07 20:07 | 45.26629 | 9.61410 | 16981 ft | 402 kts | 134° |
| 2026-05-07 20:07 | 45.24712 | 9.64365 | 16976 ft | 402 kts | 134° |
| 2026-05-07 20:08 | 45.22846 | 9.67235 | 16963 ft | 398 kts | 134° |
| 2026-05-07 20:08 | 45.21081 | 9.70221 | 16842 ft | 384 kts | 126° |
| 2026-05-07 20:08 | 45.19847 | 9.73463 | 16686 ft | 374 kts | 113° |
| 2026-05-07 20:08 | 45.19125 | 9.76955 | 16449 ft | 366 kts | 100° |
| 2026-05-07 20:09 | 45.18857 | 9.80488 | 16239 ft | 356 kts | 95° |
| 2026-05-07 20:09 | 45.18640 | 9.83949 | 16034 ft | 347 kts | 96° |
| 2026-05-07 20:09 | 45.18421 | 9.87305 | 15828 ft | 336 kts | 96° |
| 2026-05-07 20:10 | 45.17993 | 9.93736 | 14508 ft | 323 kts | 96° |
| 2026-05-07 20:10 | 45.17781 | 9.96886 | 13817 ft | 320 kts | 96° |
| 2026-05-07 20:10 | 45.17572 | 10.00015 | 13060 ft | 316 kts | 96° |
| 2026-05-07 20:10 | 45.17367 | 10.03092 | 12342 ft | 311 kts | 96° |
| 2026-05-07 20:11 | 45.17165 | 10.06119 | 11670 ft | 308 kts | 96° |
| 2026-05-07 20:11 | 45.16964 | 10.09135 | 11303 ft | 305 kts | 96° |
| 2026-05-07 20:11 | 45.16765 | 10.12114 | 10981 ft | 302 kts | 96° |
| 2026-05-07 20:11 | 45.16566 | 10.15073 | 10645 ft | 300 kts | 96° |
| 2026-05-07 20:12 | 45.16366 | 10.18003 | 10300 ft | 298 kts | 96° |
| 2026-05-07 20:12 | 45.16167 | 10.20911 | 9970 ft | 296 kts | 96° |
| 2026-05-07 20:12 | 45.16036 | 10.22830 | 9735 ft | 294 kts | 96° |
| 2026-05-07 20:12 | 45.15837 | 10.25707 | 9365 ft | 292 kts | 96° |
| 2026-05-07 20:13 | 45.15639 | 10.28560 | 9023 ft | 289 kts | 96° |
| 2026-05-07 20:13 | 45.15443 | 10.31374 | 8709 ft | 285 kts | 96° |
| 2026-05-07 20:13 | 45.15249 | 10.34145 | 8388 ft | 279 kts | 96° |
| 2026-05-07 20:13 | 45.15003 | 10.37717 | 7942 ft | 268 kts | 96° |
| 2026-05-07 20:14 | 45.14883 | 10.39449 | 7749 ft | 255 kts | 96° |
| 2026-05-07 20:14 | 45.14711 | 10.41876 | 7399 ft | 240 kts | 96° |
| 2026-05-07 20:14 | 45.14549 | 10.44161 | 7079 ft | 227 kts | 96° |
| 2026-05-07 20:14 | 45.14394 | 10.46340 | 6550 ft | 221 kts | 96° |
| 2026-05-07 20:15 | 45.14243 | 10.48469 | 6157 ft | 213 kts | 96° |
| 2026-05-07 20:15 | 45.14273 | 10.50525 | 5781 ft | 207 kts | 80° |
| 2026-05-07 20:15 | 45.14729 | 10.52430 | 5485 ft | 203 kts | 61° |
| 2026-05-07 20:15 | 45.15539 | 10.54032 | 5240 ft | 202 kts | 49° |
| 2026-05-07 20:16 | 45.16490 | 10.55495 | 5044 ft | 200 kts | 46° |
| 2026-05-07 20:16 | 45.17449 | 10.56887 | 5000 ft | 196 kts | 45° |
| 2026-05-07 20:16 | 45.18420 | 10.58284 | 5005 ft | 196 kts | 45° |
| 2026-05-07 20:16 | 45.19380 | 10.59665 | 5005 ft | 196 kts | 45° |
| 2026-05-07 20:17 | 45.20325 | 10.61024 | 5005 ft | 196 kts | 45° |
| 2026-05-07 20:17 | 45.21286 | 10.62406 | 4964 ft | 197 kts | 45° |
| 2026-05-07 20:17 | 45.22258 | 10.63806 | 4780 ft | 196 kts | 45° |
| 2026-05-07 20:17 | 45.23196 | 10.65157 | 4553 ft | 189 kts | 45° |
| 2026-05-07 20:18 | 45.24093 | 10.66449 | 4287 ft | 180 kts | 46° |
| 2026-05-07 20:18 | 45.24962 | 10.67703 | 4047 ft | 178 kts | 46° |
| 2026-05-07 20:18 | 45.25830 | 10.68953 | 3810 ft | 177 kts | 46° |
| 2026-05-07 20:18 | 45.26691 | 10.70196 | 3568 ft | 176 kts | 46° |
| 2026-05-07 20:19 | 45.27546 | 10.71431 | 3351 ft | 175 kts | 46° |
| 2026-05-07 20:19 | 45.28400 | 10.72664 | 3118 ft | 174 kts | 46° |
| 2026-05-07 20:19 | 45.29247 | 10.73889 | 2887 ft | 174 kts | 46° |
| 2026-05-07 20:19 | 45.30094 | 10.75112 | 2659 ft | 173 kts | 46° |
| 2026-05-07 20:20 | 45.30930 | 10.76323 | 2421 ft | 168 kts | 46° |
| 2026-05-07 20:20 | 45.31717 | 10.77460 | 2206 ft | 157 kts | 46° |
| 2026-05-07 20:20 | 45.32469 | 10.78550 | 2001 ft | 153 kts | 46° |
| 2026-05-07 20:20 | 45.33211 | 10.79623 | 1797 ft | 151 kts | 46° |
| 2026-05-07 20:21 | 45.33947 | 10.80690 | 1607 ft | 151 kts | 46° |
| 2026-05-07 20:21 | 45.34677 | 10.81748 | 1397 ft | 150 kts | 46° |
| 2026-05-07 20:21 | 45.35404 | 10.82803 | 1202 ft | 149 kts | 46° |
| 2026-05-07 20:21 | 45.36117 | 10.83841 | 1009 ft | 148 kts | 46° |
| 2026-05-07 20:22 | 45.36835 | 10.84895 | 812 ft | 148 kts | 45° |
| 2026-05-07 20:22 | 45.37559 | 10.85932 | 622 ft | 147 kts | 44° |
| 2026-05-07 20:22 | 45.38274 | 10.86970 | 409 ft | 146 kts | 45° |
| 2026-05-07 20:22 | 45.38981 | 10.88001 | 242 ft | 144 kts | 45° |
| 2026-05-07 20:23 | 45.39604 | 10.88905 | 241 ft | 101 kts | 45° |
| 2026-05-07 20:23 | 45.39981 | 10.89447 | 244 ft | 62 kts | 45° |
| 2026-05-07 20:23 | 45.40212 | 10.89787 | 247 ft | 26 kts | 46° |
| 2026-05-07 20:23 | 45.40280 | 10.89950 | 247 ft | 14 kts | 74° |
| 2026-05-07 20:24 | 45.40304 | 10.90080 | 246 ft | 13 kts | 76° |
| 2026-05-07 20:24 | 45.40322 | 10.90196 | 244 ft | 11 kts | 90° |
| 2026-05-07 20:24 | 45.40285 | 10.90285 | 241 ft | 10 kts | 134° |
| 2026-05-07 20:24 | 45.40236 | 10.90351 | 240 ft | 3 kts | 136° |
| 2026-05-07 20:25 | 45.40222 | 10.90355 | 240 ft | 3 kts | 182° |
| 2026-05-07 20:25 | 45.40204 | 10.90339 | 240 ft | 2 kts | 227° |
| 2026-05-07 20:25 | 45.40200 | 10.90332 | 240 ft | 0 kts | 227° |
| 2026-05-07 20:27 | 45.40200 | 10.90459 | 240 ft | 0 kts | 136° |